Time;durP1;ratioP1;P1;durP2;ratioP2;P2;SDS_P1;SDS_P2;PMS_P1;PMS_P2;Temp;Humidity;BMP_temperature;BMP_pressure;BME280_temperature;BME280_humidity;BME280_pressure;Samples;Min_cycle;Max_cycle;Signal;HPM_P1;HPM_P2
2022/08/13 00:01:25;;;;;;;3.87;1.83;;;;;;;;;;4977736;28;20193;-75
2022/08/13 00:04:00;;;;;;;2.03;1.60;;;;;;;;;;4979428;28;20197;-75
2022/08/13 00:09:22;;;;;;;2.43;1.70;;;;;;;;;;4966522;28;20240;-75
2022/08/13 00:14:50;;;;;;;1.63;1.53;;;;;;;;;;4977420;28;20210;-75
2022/08/13 00:17:19;;;;;;;2.90;1.77;;;;;;;;;;4976874;28;20209;-75
2022/08/13 00:19:53;;;;;;;2.57;1.83;;;;;;;;;;4976675;28;20232;-75
2022/08/13 00:22:25;;;;;;;3.10;1.87;;;;;;;;;;4976985;28;20252;-75
2022/08/13 00:24:59;;;;;;;1.93;1.70;;;;;;;;;;4977473;28;20198;-75
2022/08/13 00:27:29;;;;;;;2.53;1.80;;;;;;;;;;4976594;28;20204;-75
2022/08/13 00:30:19;;;;;;;2.73;1.90;;;;;;;;;;4977266;28;20205;-75
2022/08/13 00:32:57;;;;;;;2.70;1.80;;;;;;;;;;4977140;28;20213;-75
2022/08/13 00:35:26;;;;;;;2.90;1.70;;;;;;;;;;4976956;28;20205;-75
2022/08/13 00:38:09;;;;;;;2.20;1.70;;;;;;;;;;4976987;28;20600;-74
2022/08/13 00:40:41;;;;;;;2.53;1.80;;;;;;;;;;4976864;28;20197;-75
2022/08/13 00:43:23;;;;;;;5.17;1.77;;;;;;;;;;4977069;28;20707;-75
2022/08/13 00:45:54;;;;;;;3.20;1.90;;;;;;;;;;4976872;28;20209;-75
2022/08/13 00:51:16;;;;;;;2.43;1.80;;;;;;;;;;4976783;28;20531;-75
2022/08/13 00:54:05;;;;;;;2.60;1.70;;;;;;;;;;4976786;28;20260;-75
2022/08/13 00:56:39;;;;;;;1.77;1.53;;;;;;;;;;4976556;28;20231;-75
2022/08/13 00:59:13;;;;;;;2.93;1.83;;;;;;;;;;4976284;28;20281;-75
2022/08/13 01:01:44;;;;;;;3.93;1.90;;;;;;;;;;4976699;28;20190;-75
2022/08/13 01:04:21;;;;;;;2.70;1.53;;;;;;;;;;4976284;28;20190;-75
2022/08/13 01:06:55;;;;;;;3.17;1.67;;;;;;;;;;4976300;28;20186;-74
2022/08/13 01:09:29;;;;;;;1.83;1.60;;;;;;;;;;4975826;28;20273;-75
2022/08/13 01:12:20;;;;;;;2.63;1.60;;;;;;;;;;4976487;28;20721;-75
2022/08/13 01:14:54;;;;;;;3.07;1.70;;;;;;;;;;4976002;28;20193;-75
2022/08/13 01:17:27;;;;;;;2.97;1.90;;;;;;;;;;4976468;28;20649;-75
2022/08/13 01:20:13;;;;;;;3.30;1.77;;;;;;;;;;4976139;28;20190;-74
2022/08/13 01:23:00;;;;;;;2.43;1.80;;;;;;;;;;4976390;28;20218;-74
2022/08/13 01:25:30;;;;;;;2.97;1.77;;;;;;;;;;4976355;28;20205;-74
2022/08/13 01:28:19;;;;;;;3.47;1.60;;;;;;;;;;4975818;28;20234;-74
2022/08/13 01:30:49;;;;;;;1.90;1.60;;;;;;;;;;4975284;28;20217;-74
2022/08/13 01:33:18;;;;;;;3.93;1.93;;;;;;;;;;4975987;28;20205;-75
2022/08/13 01:35:47;;;;;;;2.03;1.83;;;;;;;;;;4975760;28;20215;-74
2022/08/13 01:38:22;;;;;;;3.93;2.00;;;;;;;;;;4975768;28;20225;-74
2022/08/13 01:40:55;;;;;;;3.87;2.00;;;;;;;;;;4975905;28;20213;-75
2022/08/13 01:43:28;;;;;;;1.87;1.77;;;;;;;;;;4975452;28;20242;-75
2022/08/13 01:45:57;;;;;;;1.73;1.60;;;;;;;;;;4975120;28;20210;-74
2022/08/13 01:51:28;;;;;;;2.13;1.60;;;;;;;;;;4975647;28;20574;-75
2022/08/13 01:54:10;;;;;;;1.80;1.70;;;;;;;;;;4976040;28;20249;-74
2022/08/13 01:56:59;;;;;;;1.90;1.80;;;;;;;;;;4977315;28;20253;-74
2022/08/13 01:59:30;;;;;;;2.67;1.90;;;;;;;;;;4979042;28;20261;-74
2022/08/13 02:02:18;;;;;;;3.13;2.00;;;;;;;;;;4975658;28;20214;-74
2022/08/13 02:05:05;;;;;;;2.13;1.60;;;;;;;;;;4965308;28;20590;-74
2022/08/13 02:07:38;;;;;;;3.60;1.80;;;;;;;;;;4975622;28;20190;-74
2022/08/13 02:10:28;;;;;;;2.20;1.93;;;;;;;;;;4974264;28;20217;-74
2022/08/13 02:12:57;;;;;;;2.37;1.97;;;;;;;;;;4957865;28;20190;-74
2022/08/13 02:15:26;;;;;;;2.27;2.03;;;;;;;;;;4961919;28;20198;-74
2022/08/13 02:18:08;;;;;;;2.97;1.97;;;;;;;;;;4963565;28;20284;-74
2022/08/13 02:20:42;;;;;;;2.00;1.80;;;;;;;;;;4974649;28;20202;-74
2022/08/13 02:23:10;;;;;;;2.50;1.97;;;;;;;;;;4974968;28;20648;-74
2022/08/13 02:25:45;;;;;;;4.10;1.93;;;;;;;;;;4974959;28;20576;-74
2022/08/13 02:28:24;;;;;;;3.10;1.93;;;;;;;;;;4973685;28;20304;-74
2022/08/13 02:30:56;;;;;;;2.07;1.97;;;;;;;;;;4975152;28;20210;-74
2022/08/13 02:33:26;;;;;;;3.03;1.97;;;;;;;;;;4975002;28;20241;-73
2022/08/13 02:35:55;;;;;;;2.20;2.00;;;;;;;;;;4974735;28;20206;-74
2022/08/13 02:38:25;;;;;;;2.10;2.00;;;;;;;;;;4974257;28;20597;-74
2022/08/13 02:43:51;;;;;;;2.00;1.87;;;;;;;;;;4997441;28;20247;-74
2022/08/13 02:46:26;;;;;;;2.10;1.90;;;;;;;;;;4981117;28;20217;-73
2022/08/13 02:48:59;;;;;;;2.30;2.10;;;;;;;;;;4967272;28;20261;-73
2022/08/13 02:51:28;;;;;;;2.50;2.07;;;;;;;;;;4980435;28;20268;-73
2022/08/13 02:54:20;;;;;;;2.30;1.90;;;;;;;;;;4980556;28;20241;-73
2022/08/13 02:56:51;;;;;;;2.30;2.10;;;;;;;;;;4980311;28;20237;-73
2022/08/13 02:59:20;;;;;;;2.77;1.90;;;;;;;;;;4980731;28;20698;-73
2022/08/13 03:02:10;;;;;;;2.20;2.00;;;;;;;;;;4980817;28;20589;-73
2022/08/13 03:04:44;;;;;;;3.17;2.30;;;;;;;;;;4980434;28;20566;-73
2022/08/13 03:07:13;;;;;;;2.00;1.90;;;;;;;;;;4977881;28;20198;-73
2022/08/13 03:09:41;;;;;;;2.70;2.20;;;;;;;;;;4979837;28;20222;-73
2022/08/13 03:12:15;;;;;;;4.43;2.03;;;;;;;;;;4981601;28;20212;-73
2022/08/13 03:14:45;;;;;;;3.13;2.10;;;;;;;;;;4979174;28;20216;-73
2022/08/13 03:17:18;;;;;;;1.90;1.80;;;;;;;;;;4979127;28;20301;-73
2022/08/13 03:19:51;;;;;;;4.10;2.50;;;;;;;;;;4983788;28;20228;-73
2022/08/13 03:22:26;;;;;;;3.53;2.17;;;;;;;;;;5000656;28;20212;-74
2022/08/13 03:24:55;;;;;;;2.40;2.20;;;;;;;;;;4982467;28;20244;-74
2022/08/13 03:27:27;;;;;;;3.77;2.30;;;;;;;;;;4980831;28;21001;-74
2022/08/13 03:29:59;;;;;;;2.30;2.10;;;;;;;;;;4976914;28;20587;-74
2022/08/13 03:32:36;;;;;;;2.77;2.30;;;;;;;;;;4981418;28;20207;-74
2022/08/13 03:35:06;;;;;;;2.70;2.50;;;;;;;;;;4981029;28;20198;-74
2022/08/13 03:37:38;;;;;;;3.57;2.10;;;;;;;;;;4980315;28;20222;-74
2022/08/13 03:40:11;;;;;;;2.70;2.50;;;;;;;;;;4980519;28;20686;-74
2022/08/13 03:42:48;;;;;;;3.90;2.53;;;;;;;;;;4981003;28;20204;-73
2022/08/13 03:45:20;;;;;;;2.97;2.13;;;;;;;;;;4974531;28;20205;-73
2022/08/13 03:47:51;;;;;;;2.47;2.20;;;;;;;;;;4961483;28;20206;-73
2022/08/13 03:50:21;;;;;;;3.10;2.37;;;;;;;;;;4979470;28;20662;-73
2022/08/13 03:52:52;;;;;;;2.73;2.37;;;;;;;;;;4983323;28;20206;-73
2022/08/13 03:55:22;;;;;;;5.27;2.47;;;;;;;;;;4976097;28;20659;-73
2022/08/13 03:57:52;;;;;;;3.73;2.60;;;;;;;;;;4969652;28;20210;-73
2022/08/13 04:00:31;;;;;;;2.80;2.40;;;;;;;;;;4976457;28;20189;-73
2022/08/13 04:03:02;;;;;;;4.97;2.53;;;;;;;;;;4987885;28;20567;-73
2022/08/13 04:05:31;;;;;;;3.03;2.40;;;;;;;;;;4977564;28;20202;-73
2022/08/13 04:08:19;;;;;;;3.30;2.70;;;;;;;;;;4977589;28;20253;-73
2022/08/13 04:10:50;;;;;;;4.43;3.20;;;;;;;;;;4983553;28;20235;-73
2022/08/13 04:13:24;;;;;;;4.43;2.93;;;;;;;;;;4977040;28;20221;-73
2022/08/13 04:16:13;;;;;;;5.07;3.00;;;;;;;;;;4977246;28;20264;-73
2022/08/13 04:18:43;;;;;;;3.33;3.03;;;;;;;;;;4977485;28;20225;-73
2022/08/13 04:21:14;;;;;;;3.20;2.90;;;;;;;;;;4977021;28;20197;-74
2022/08/13 04:23:50;;;;;;;4.10;2.50;;;;;;;;;;4976943;28;20217;-73
2022/08/13 04:26:24;;;;;;;4.20;2.63;;;;;;;;;;4977712;28;20236;-73
2022/08/13 04:29:02;;;;;;;2.80;2.60;;;;;;;;;;4976060;28;20229;-73
2022/08/13 04:31:32;;;;;;;3.23;2.77;;;;;;;;;;4970878;28;20245;-73
2022/08/13 04:34:16;;;;;;;3.00;2.70;;;;;;;;;;4970049;28;20280;-73
2022/08/13 04:37:05;;;;;;;2.37;2.17;;;;;;;;;;4961360;28;20199;-73
2022/08/13 04:39:36;;;;;;;2.93;2.70;;;;;;;;;;4974971;28;20228;-74
2022/08/13 04:42:25;;;;;;;2.83;2.50;;;;;;;;;;4976203;28;20210;-73
2022/08/13 04:45:05;;;;;;;3.37;2.60;;;;;;;;;;4976799;28;20218;-73
2022/08/13 04:47:39;;;;;;;4.00;2.60;;;;;;;;;;4957957;29;20672;-73
2022/08/13 04:50:08;;;;;;;12.03;2.97;;;;;;;;;;4970273;28;20218;-73
2022/08/13 04:52:38;;;;;;;14.73;3.43;;;;;;;;;;4975835;28;20293;-73
2022/08/13 04:55:10;;;;;;;6.90;3.17;;;;;;;;;;4970339;28;20222;-73
2022/08/13 04:57:42;;;;;;;3.70;3.20;;;;;;;;;;4971750;28;20260;-73
2022/08/13 05:00:25;;;;;;;6.87;3.20;;;;;;;;;;4971887;28;20221;-73
2022/08/13 05:02:54;;;;;;;11.40;3.27;;;;;;;;;;4968099;28;20293;-74
2022/08/13 05:05:25;;;;;;;10.00;2.93;;;;;;;;;;4972586;28;20224;-73
2022/08/13 05:07:54;;;;;;;4.87;3.03;;;;;;;;;;4967860;28;20198;-73
2022/08/13 05:10:23;;;;;;;6.33;2.90;;;;;;;;;;4972282;28;20198;-73
2022/08/13 05:13:01;;;;;;;3.30;2.73;;;;;;;;;;4975230;28;20202;-73
2022/08/13 05:15:39;;;;;;;3.67;3.10;;;;;;;;;;4970733;28;20290;-73
2022/08/13 05:18:15;;;;;;;5.70;3.03;;;;;;;;;;4970827;28;20214;-73
2022/08/13 05:20:56;;;;;;;4.60;3.50;;;;;;;;;;4972999;28;20222;-74
2022/08/13 05:23:25;;;;;;;3.87;3.17;;;;;;;;;;4976195;28;20301;-74
2022/08/13 05:26:14;;;;;;;3.40;3.10;;;;;;;;;;4969834;28;20206;-74
2022/08/13 05:29:04;;;;;;;3.40;3.10;;;;;;;;;;4968674;28;20247;-73
2022/08/13 05:31:35;;;;;;;3.97;3.30;;;;;;;;;;4974702;28;20210;-73
2022/08/13 05:34:24;;;;;;;5.03;3.10;;;;;;;;;;4973735;28;20655;-73
2022/08/13 05:36:53;;;;;;;7.43;3.60;;;;;;;;;;4962193;28;20208;-73
2022/08/13 05:39:42;;;;;;;4.97;3.50;;;;;;;;;;4964487;28;20230;-73
2022/08/13 05:42:18;;;;;;;7.33;3.30;;;;;;;;;;4970573;28;20198;-73
2022/08/13 05:44:54;;;;;;;4.20;3.50;;;;;;;;;;4974166;28;20203;-73
2022/08/13 05:47:24;;;;;;;3.80;3.50;;;;;;;;;;4968206;28;20191;-73
2022/08/13 05:49:54;;;;;;;5.07;3.27;;;;;;;;;;4964072;28;20702;-73
2022/08/13 05:52:26;;;;;;;5.70;3.30;;;;;;;;;;4975387;28;20194;-74
2022/08/13 05:55:09;;;;;;;5.23;3.50;;;;;;;;;;4971635;28;20201;-74
2022/08/13 05:57:58;;;;;;;4.77;3.50;;;;;;;;;;4965564;28;20221;-74
2022/08/13 06:03:25;;;;;;;3.73;3.17;;;;;;;;;;4952634;28;20209;-74
2022/08/13 06:06:15;;;;;;;4.63;3.40;;;;;;;;;;4972840;28;20205;-74
2022/08/13 06:08:50;;;;;;;4.07;3.30;;;;;;;;;;4965342;28;20233;-74
2022/08/13 06:11:20;;;;;;;6.77;3.47;;;;;;;;;;4975256;28;20198;-74
2022/08/13 06:14:10;;;;;;;5.47;3.73;;;;;;;;;;4969815;28;20202;-74
2022/08/13 06:16:38;;;;;;;6.67;3.37;;;;;;;;;;4971993;28;20667;-73
2022/08/13 06:19:24;;;;;;;5.13;2.90;;;;;;;;;;4971328;28;20325;-73
2022/08/13 06:21:57;;;;;;;3.70;3.20;;;;;;;;;;4969940;28;20627;-73
2022/08/13 06:24:28;;;;;;;5.55;3.35;;;;;;;;;;4968094;28;20691;-73
2022/08/13 06:27:04;;;;;;;5.77;3.47;;;;;;;;;;4970432;28;20205;-73
2022/08/13 06:29:43;;;;;;;6.90;3.47;;;;;;;;;;4960044;28;20250;-73
2022/08/13 06:32:21;;;;;;;3.55;3.15;;;;;;;;;;4967021;28;20556;-73
2022/08/13 06:35:10;;;;;;;2.95;2.67;;;;;;;;;;4968626;28;20241;-73
2022/08/13 06:37:42;;;;;;;3.10;2.80;;;;;;;;;;4969428;28;20257;-73
2022/08/13 06:40:22;;;;;;;3.97;2.83;;;;;;;;;;4965274;28;20241;-73
2022/08/13 06:43:05;;;;;;;4.28;2.80;;;;;;;;;;4970439;28;20217;-73
2022/08/13 06:45:36;;;;;;;4.85;2.95;;;;;;;;;;4971544;28;20288;-73
2022/08/13 06:48:10;;;;;;;4.75;2.80;;;;;;;;;;4973303;28;20221;-73
2022/08/13 06:50:46;;;;;;;5.70;2.83;;;;;;;;;;4966085;28;20197;-73
2022/08/13 06:53:15;;;;;;;2.88;2.67;;;;;;;;;;4969722;28;20212;-73
2022/08/13 06:56:04;;;;;;;3.25;2.58;;;;;;;;;;4971419;28;20230;-73
2022/08/13 06:58:54;;;;;;;5.55;2.60;;;;;;;;;;4971662;28;20229;-73
2022/08/13 07:01:26;;;;;;;7.75;2.63;;;;;;;;;;4969521;28;20229;-74
2022/08/13 07:04:19;;;;;;;2.50;2.30;;;;;;;;;;4973136;28;20233;-74
2022/08/13 07:06:59;;;;;;;4.55;2.50;;;;;;;;;;4968664;28;20222;-74
2022/08/13 07:09:32;;;;;;;4.15;2.35;;;;;;;;;;4968911;28;20236;-74
2022/08/13 07:12:12;;;;;;;4.25;2.70;;;;;;;;;;4973646;28;20241;-74
2022/08/13 07:14:43;;;;;;;5.63;2.47;;;;;;;;;;4964372;28;20261;-74
2022/08/13 07:17:28;;;;;;;3.95;2.20;;;;;;;;;;4969441;28;20209;-74
2022/08/13 07:20:03;;;;;;;2.45;2.17;;;;;;;;;;4964987;28;20621;-74
2022/08/13 07:22:37;;;;;;;2.53;2.30;;;;;;;;;;4971222;28;20245;-74
2022/08/13 07:25:28;;;;;;;3.22;2.42;;;;;;;;;;4968217;28;20211;-74
2022/08/13 07:28:19;;;;;;;2.58;2.38;;;;;;;;;;4965928;28;20633;-74
2022/08/13 07:31:09;;;;;;;2.65;2.20;;;;;;;;;;4971792;28;20203;-74
2022/08/13 07:33:42;;;;;;;4.10;2.38;;;;;;;;;;4968065;28;20656;-75
2022/08/13 07:36:27;;;;;;;4.55;2.30;;;;;;;;;;4972043;28;20209;-74
2022/08/13 07:38:58;;;;;;;3.63;2.13;;;;;;;;;;4974027;28;20268;-74
2022/08/13 07:41:35;;;;;;;4.20;2.40;;;;;;;;;;4971673;28;20248;-74
2022/08/13 07:44:26;;;;;;;4.70;2.10;;;;;;;;;;4971145;28;20212;-74
2022/08/13 07:49:53;;;;;;;3.90;2.17;;;;;;;;;;4973731;28;20229;-74
2022/08/13 07:52:25;;;;;;;3.17;2.20;;;;;;;;;;4975054;28;20205;-74
2022/08/13 07:54:55;;;;;;;3.78;2.05;;;;;;;;;;4974884;28;20206;-74
2022/08/13 07:57:25;;;;;;;2.85;2.00;;;;;;;;;;4972395;28;20209;-74
2022/08/13 08:00:21;;;;;;;3.53;2.22;;;;;;;;;;4972821;28;20990;-74
2022/08/13 08:02:55;;;;;;;3.53;2.03;;;;;;;;;;4976878;28;20202;-74
2022/08/13 08:05:25;;;;;;;2.70;2.22;;;;;;;;;;4973854;28;20213;-74
2022/08/13 08:08:08;;;;;;;6.60;2.33;;;;;;;;;;4971317;28;20230;-74
2022/08/13 08:10:40;;;;;;;3.92;2.10;;;;;;;;;;4976337;28;20647;-74
2022/08/13 08:13:10;;;;;;;2.92;2.15;;;;;;;;;;4971213;28;20727;-74
2022/08/13 08:15:42;;;;;;;3.13;2.22;;;;;;;;;;4970945;28;20213;-74
2022/08/13 08:18:32;;;;;;;4.53;2.20;;;;;;;;;;4967426;28;20594;-74
2022/08/13 08:21:23;;;;;;;2.67;2.25;;;;;;;;;;4968582;28;20306;-74
2022/08/13 08:24:13;;;;;;;3.70;2.20;;;;;;;;;;4966555;28;20264;-74
2022/08/13 08:27:00;;;;;;;5.25;2.47;;;;;;;;;;4974823;28;20214;-74
2022/08/13 08:29:31;;;;;;;2.85;2.35;;;;;;;;;;4973786;28;20221;-73
2022/08/13 08:32:04;;;;;;;3.13;2.17;;;;;;;;;;4974058;28;20194;-74
2022/08/13 08:34:38;;;;;;;3.60;2.53;;;;;;;;;;4975463;28;20239;-74
2022/08/13 08:37:09;;;;;;;3.03;2.45;;;;;;;;;;4976492;28;20674;-74
2022/08/13 08:42:38;;;;;;;2.45;2.25;;;;;;;;;;4972002;28;20590;-75
2022/08/13 08:45:21;;;;;;;4.95;2.50;;;;;;;;;;4970230;28;20663;-74
2022/08/13 08:47:52;;;;;;;3.88;2.53;;;;;;;;;;4971854;28;20244;-74
2022/08/13 08:50:24;;;;;;;2.83;2.55;;;;;;;;;;4966733;28;20206;-74
2022/08/13 08:56:03;;;;;;;3.08;2.80;;;;;;;;;;4974543;28;20209;-74
2022/08/13 08:58:40;;;;;;;4.78;3.10;;;;;;;;;;4971560;28;20222;-75
2022/08/13 09:01:11;;;;;;;4.28;2.95;;;;;;;;;;4975851;28;20233;-74
2022/08/13 09:03:42;;;;;;;3.47;3.10;;;;;;;;;;4975334;28;20233;-74
2022/08/13 09:06:26;;;;;;;5.80;3.00;;;;;;;;;;4974456;28;20206;-74
2022/08/13 09:09:14;;;;;;;3.45;3.15;;;;;;;;;;4966751;28;20226;-74
2022/08/13 09:11:47;;;;;;;4.30;3.17;;;;;;;;;;4970093;28;20695;-75
2022/08/13 09:14:24;;;;;;;3.38;2.80;;;;;;;;;;4968955;28;20689;-74
2022/08/13 09:16:53;;;;;;;3.63;3.10;;;;;;;;;;4971722;28;20563;-74
2022/08/13 09:19:23;;;;;;;5.65;3.78;;;;;;;;;;4961988;28;20262;-74
2022/08/13 09:22:14;;;;;;;3.78;3.40;;;;;;;;;;4970792;28;20665;-74
2022/08/13 09:24:48;;;;;;;6.15;3.40;;;;;;;;;;4973461;28;20662;-74
2022/08/13 09:27:17;;;;;;;5.28;3.20;;;;;;;;;;4975324;28;20214;-75
2022/08/13 09:29:50;;;;;;;4.43;3.55;;;;;;;;;;4972796;28;20711;-74
2022/08/13 09:32:31;;;;;;;3.80;3.50;;;;;;;;;;4975033;28;20200;-74
2022/08/13 09:35:01;;;;;;;8.07;4.00;;;;;;;;;;4973401;28;20288;-75
2022/08/13 09:37:31;;;;;;;3.80;3.50;;;;;;;;;;4972479;28;20205;-74
2022/08/13 09:40:22;;;;;;;6.15;3.30;;;;;;;;;;4964889;28;20284;-75
2022/08/13 09:43:17;;;;;;;3.88;3.28;;;;;;;;;;4966344;28;20226;-75
2022/08/13 09:46:08;;;;;;;6.32;3.35;;;;;;;;;;4968060;28;20692;-74
2022/08/13 09:48:37;;;;;;;4.30;4.00;;;;;;;;;;4966017;28;20323;-74
2022/08/13 09:51:14;;;;;;;4.72;3.78;;;;;;;;;;4972729;28;20729;-74
2022/08/13 09:54:07;;;;;;;6.28;3.58;;;;;;;;;;4973704;28;20658;-74
2022/08/13 09:56:39;;;;;;;5.40;3.53;;;;;;;;;;4970883;28;20253;-75
2022/08/13 09:59:09;;;;;;;6.22;3.55;;;;;;;;;;4972069;28;20289;-75
2022/08/13 10:01:59;;;;;;;4.70;3.53;;;;;;;;;;4966569;28;20276;-75
2022/08/13 10:04:30;;;;;;;5.57;3.50;;;;;;;;;;4969385;28;20208;-75
2022/08/13 10:07:01;;;;;;;6.38;3.50;;;;;;;;;;4963203;28;20492;-75
2022/08/13 10:09:38;;;;;;;3.58;3.38;;;;;;;;;;4969757;28;20233;-75
2022/08/13 10:12:27;;;;;;;6.15;3.67;;;;;;;;;;4969812;28;20245;-74
2022/08/13 10:14:57;;;;;;;3.63;3.33;;;;;;;;;;4970457;28;20210;-74
2022/08/13 10:17:27;;;;;;;4.32;3.42;;;;;;;;;;4967371;28;20638;-74
2022/08/13 10:20:16;;;;;;;3.95;3.50;;;;;;;;;;4970662;28;20206;-73
2022/08/13 10:22:49;;;;;;;4.38;3.67;;;;;;;;;;4972296;28;20664;-74
2022/08/13 10:25:22;;;;;;;3.70;3.40;;;;;;;;;;4969410;28;20209;-74
2022/08/13 10:27:51;;;;;;;4.13;3.78;;;;;;;;;;4972552;28;20639;-74
2022/08/13 10:30:26;;;;;;;3.97;3.60;;;;;;;;;;4970963;28;20214;-74
2022/08/13 10:33:16;;;;;;;4.53;3.75;;;;;;;;;;4963061;28;20194;-73
2022/08/13 10:35:51;;;;;;;4.72;4.15;;;;;;;;;;4968348;28;20206;-73
2022/08/13 10:38:25;;;;;;;4.75;4.00;;;;;;;;;;4967970;28;20224;-74
2022/08/13 10:40:57;;;;;;;3.97;3.67;;;;;;;;;;4972855;28;20200;-74
2022/08/13 10:43:27;;;;;;;4.13;3.83;;;;;;;;;;4973613;28;20714;-73
2022/08/13 10:46:16;;;;;;;3.97;3.67;;;;;;;;;;4971766;28;20264;-74
2022/08/13 10:48:58;;;;;;;6.57;4.22;;;;;;;;;;4968957;28;20627;-74
2022/08/13 10:51:28;;;;;;;5.72;4.10;;;;;;;;;;4970580;28;20562;-74
2022/08/13 10:54:04;;;;;;;4.13;3.83;;;;;;;;;;4971835;28;20614;-74
2022/08/13 10:56:33;;;;;;;6.25;4.30;;;;;;;;;;4971450;28;20213;-74
2022/08/13 10:59:03;;;;;;;4.28;3.88;;;;;;;;;;4969792;28;20280;-74
2022/08/13 11:01:32;;;;;;;4.95;3.97;;;;;;;;;;4970273;28;20210;-73
2022/08/13 11:04:05;;;;;;;4.85;4.35;;;;;;;;;;4964758;28;20647;-76
2022/08/13 11:06:38;;;;;;;6.80;3.78;;;;;;;;;;4970555;28;20654;-75
2022/08/13 11:09:08;;;;;;;6.63;3.90;;;;;;;;;;4978155;28;20236;-77
2022/08/13 11:11:51;;;;;;;4.32;3.88;;;;;;;;;;4977182;28;20698;-74
2022/08/13 11:14:22;;;;;;;5.93;4.47;;;;;;;;;;4978829;28;20659;-75
2022/08/13 11:17:04;;;;;;;4.47;3.85;;;;;;;;;;4978368;28;20193;-75
2022/08/13 11:19:54;;;;;;;5.78;4.50;;;;;;;;;;4978281;28;20722;-76
2022/08/13 11:22:30;;;;;;;7.47;4.45;;;;;;;;;;4978239;28;20233;-75
2022/08/13 11:25:00;;;;;;;4.40;4.10;;;;;;;;;;4978225;28;20293;-75
2022/08/13 11:27:49;;;;;;;4.78;4.38;;;;;;;;;;4978500;28;20202;-76
2022/08/13 11:30:20;;;;;;;4.40;4.00;;;;;;;;;;4978213;28;20229;-75
2022/08/13 11:33:03;;;;;;;4.68;4.28;;;;;;;;;;4978259;28;20209;-75
2022/08/13 11:35:34;;;;;;;5.00;4.45;;;;;;;;;;4978398;28;20702;-76
2022/08/13 11:38:08;;;;;;;4.82;4.32;;;;;;;;;;4977924;28;20212;-76
2022/08/13 11:40:37;;;;;;;4.43;4.03;;;;;;;;;;4977921;28;20576;-77
2022/08/13 11:43:07;;;;;;;4.38;3.97;;;;;;;;;;4977491;28;20261;-75
2022/08/13 11:45:45;;;;;;;5.90;4.47;;;;;;;;;;4977785;28;20190;-76
2022/08/13 11:48:17;;;;;;;5.88;4.20;;;;;;;;;;4978256;28;20230;-76
2022/08/13 11:51:02;;;;;;;5.53;4.07;;;;;;;;;;4978074;28;20636;-77
2022/08/13 11:53:33;;;;;;;4.57;4.18;;;;;;;;;;4977853;28;20196;-77
2022/08/13 11:56:22;;;;;;;5.43;4.30;;;;;;;;;;4977190;28;20205;-77
2022/08/13 11:58:51;;;;;;;5.05;4.57;;;;;;;;;;4977070;28;20229;-75
2022/08/13 12:01:25;;;;;;;7.88;4.40;;;;;;;;;;4978182;28;20665;-75
2022/08/13 12:04:10;;;;;;;6.82;4.45;;;;;;;;;;4977152;28;20272;-74
2022/08/13 12:06:46;;;;;;;4.78;4.35;;;;;;;;;;4978186;28;20213;-74
2022/08/13 12:09:19;;;;;;;5.57;4.00;;;;;;;;;;4977029;28;20234;-75
2022/08/13 12:12:07;;;;;;;4.40;3.97;;;;;;;;;;4977549;28;20205;-75
2022/08/13 12:14:52;;;;;;;4.10;3.70;;;;;;;;;;4976455;28;20710;-75
2022/08/13 12:17:21;;;;;;;5.28;4.40;;;;;;;;;;4977521;28;20213;-75
2022/08/13 12:20:10;;;;;;;5.30;4.00;;;;;;;;;;4977340;28;20581;-76
2022/08/13 12:22:50;;;;;;;4.70;4.13;;;;;;;;;;4976811;28;20225;-74
2022/08/13 12:25:20;;;;;;;4.22;3.92;;;;;;;;;;4977498;28;20277;-75
2022/08/13 12:28:10;;;;;;;5.65;3.90;;;;;;;;;;4976554;28;20284;-74
2022/08/13 12:30:49;;;;;;;4.78;4.35;;;;;;;;;;4977174;28;20277;-74
2022/08/13 12:33:18;;;;;;;4.45;4.00;;;;;;;;;;4976596;28;20237;-74
2022/08/13 12:35:50;;;;;;;5.00;3.90;;;;;;;;;;4976826;28;20190;-75
2022/08/13 12:38:26;;;;;;;7.43;3.90;;;;;;;;;;4976689;28;20276;-75
2022/08/13 12:40:58;;;;;;;4.30;4.00;;;;;;;;;;4977497;28;20190;-75
2022/08/13 12:43:45;;;;;;;4.90;4.22;;;;;;;;;;4976166;28;20301;-76
2022/08/13 12:46:34;;;;;;;4.80;4.32;;;;;;;;;;4976906;28;20206;-76
2022/08/13 12:49:03;;;;;;;5.15;4.50;;;;;;;;;;4977146;28;20308;-75
2022/08/13 12:51:41;;;;;;;5.63;4.72;;;;;;;;;;4977787;28;20603;-76
2022/08/13 12:54:28;;;;;;;4.57;4.18;;;;;;;;;;4976581;28;20182;-75
2022/08/13 12:57:17;;;;;;;5.22;4.25;;;;;;;;;;4976322;28;20205;-77
2022/08/13 13:00:07;;;;;;;4.90;4.50;;;;;;;;;;4976476;28;20284;-75
2022/08/13 13:02:40;;;;;;;5.28;4.30;;;;;;;;;;4976634;28;20209;-76
2022/08/13 13:05:17;;;;;;;7.65;4.63;;;;;;;;;;4976034;28;20217;-75
2022/08/13 13:10:45;;;;;;;4.80;4.40;;;;;;;;;;4976558;28;20642;-76
2022/08/13 13:13:15;;;;;;;4.97;4.50;;;;;;;;;;4976799;28;20210;-75
2022/08/13 13:16:05;;;;;;;6.22;4.55;;;;;;;;;;4976918;28;20198;-76
2022/08/13 13:18:56;;;;;;;5.53;4.95;;;;;;;;;;4976099;28;20726;-74
2022/08/13 13:21:28;;;;;;;5.30;4.90;;;;;;;;;;4976627;28;20663;-76
2022/08/13 13:24:07;;;;;;;6.72;4.93;;;;;;;;;;4975957;28;20218;-75
2022/08/13 13:26:47;;;;;;;4.68;4.38;;;;;;;;;;4976049;28;20233;-76
2022/08/13 13:29:29;;;;;;;5.68;5.05;;;;;;;;;;4975790;28;20252;-76
2022/08/13 13:32:04;;;;;;;5.07;4.65;;;;;;;;;;4977160;28;20247;-74
2022/08/13 13:34:53;;;;;;;5.18;4.68;;;;;;;;;;4975973;28;20689;-74
2022/08/13 13:37:24;;;;;;;5.20;4.63;;;;;;;;;;4974644;28;20237;-74
2022/08/13 13:40:16;;;;;;;6.13;4.60;;;;;;;;;;4965734;28;20557;-74
2022/08/13 13:43:00;;;;;;;5.28;4.78;;;;;;;;;;4973306;28;20210;-74
2022/08/13 13:45:51;;;;;;;5.53;5.03;;;;;;;;;;4971287;28;20264;-74
2022/08/13 13:48:21;;;;;;;5.47;4.97;;;;;;;;;;4973066;28;20222;-74
2022/08/13 13:50:51;;;;;;;4.88;4.47;;;;;;;;;;4967084;28;20210;-74
2022/08/13 13:53:20;;;;;;;5.10;4.70;;;;;;;;;;4971658;28;20295;-74
2022/08/13 13:56:02;;;;;;;4.80;4.45;;;;;;;;;;4971448;28;20214;-74
2022/08/13 13:58:31;;;;;;;5.35;4.88;;;;;;;;;;4975936;28;20232;-76
2022/08/13 14:01:21;;;;;;;5.07;4.65;;;;;;;;;;4972140;28;20233;-75
2022/08/13 14:03:51;;;;;;;5.28;4.40;;;;;;;;;;4974835;28;20296;-75
2022/08/13 14:06:29;;;;;;;4.80;4.40;;;;;;;;;;4975881;28;20166;-75
2022/08/13 14:09:06;;;;;;;4.88;4.47;;;;;;;;;;4976914;28;20236;-76
2022/08/13 14:11:37;;;;;;;5.00;4.60;;;;;;;;;;4954838;29;20190;-76
2022/08/13 14:14:19;;;;;;;4.65;4.25;;;;;;;;;;4956851;28;20191;-76
2022/08/13 14:16:52;;;;;;;5.30;4.82;;;;;;;;;;4974016;28;20216;-76
2022/08/13 14:19:21;;;;;;;5.20;4.55;;;;;;;;;;4972120;28;20232;-77
2022/08/13 14:22:10;;;;;;;4.65;4.25;;;;;;;;;;4972062;28;20682;-77
2022/08/13 14:24:40;;;;;;;4.65;4.32;;;;;;;;;;4968605;28;20269;-76
2022/08/13 14:27:12;;;;;;;5.38;4.85;;;;;;;;;;4959919;28;20209;-75
2022/08/13 14:29:47;;;;;;;5.50;5.10;;;;;;;;;;4973174;28;20288;-75
2022/08/13 14:32:22;;;;;;;6.18;4.40;;;;;;;;;;4973071;28;20213;-76
2022/08/13 14:34:59;;;;;;;4.88;4.38;;;;;;;;;;4973217;28;20211;-76
2022/08/13 14:37:29;;;;;;;5.35;4.93;;;;;;;;;;4974916;28;20256;-76
2022/08/13 14:40:12;;;;;;;4.80;4.40;;;;;;;;;;4973075;28;20278;-76
2022/08/13 14:42:44;;;;;;;5.25;4.80;;;;;;;;;;4972857;28;20210;-76
2022/08/13 14:45:47;;;;;;;5.20;4.63;;;;;;;;;;4973322;28;20750;-76
2022/08/13 14:48:29;;;;;;;5.85;4.78;;;;;;;;;;4971330;28;20227;-76
2022/08/13 14:51:01;;;;;;;5.63;5.10;;;;;;;;;;4972750;28;20205;-77
2022/08/13 14:53:48;;;;;;;4.93;4.53;;;;;;;;;;4973289;28;20292;-76
2022/08/13 14:56:18;;;;;;;4.93;4.53;;;;;;;;;;4972774;28;20683;-76
2022/08/13 14:58:49;;;;;;;5.03;4.57;;;;;;;;;;4972331;28;20234;-76
2022/08/13 15:01:24;;;;;;;5.47;4.88;;;;;;;;;;4973395;28;20292;-76
2022/08/13 15:03:59;;;;;;;5.45;4.90;;;;;;;;;;4962933;28;20693;-76
2022/08/13 15:06:30;;;;;;;5.95;4.93;;;;;;;;;;4974331;28;20213;-76
2022/08/13 15:09:03;;;;;;;5.18;4.78;;;;;;;;;;4962204;28;20226;-76
2022/08/13 15:11:37;;;;;;;9.05;4.65;;;;;;;;;;4968023;28;20685;-76
2022/08/13 15:14:10;;;;;;;6.32;5.00;;;;;;;;;;4972310;28;20196;-76
2022/08/13 15:16:39;;;;;;;7.10;4.85;;;;;;;;;;4972112;28;20228;-76
2022/08/13 15:19:12;;;;;;;5.47;4.97;;;;;;;;;;4971802;28;20234;-76
2022/08/13 15:21:45;;;;;;;7.28;5.10;;;;;;;;;;4963026;28;20232;-76
2022/08/13 15:24:28;;;;;;;5.32;4.70;;;;;;;;;;4973205;28;20230;-76
2022/08/13 15:27:11;;;;;;;5.88;4.85;;;;;;;;;;4973067;28;20214;-76
2022/08/13 15:29:40;;;;;;;6.43;4.70;;;;;;;;;;4974216;28;20225;-76
2022/08/13 15:32:16;;;;;;;7.82;5.30;;;;;;;;;;4968345;28;20205;-76
2022/08/13 15:34:51;;;;;;;5.18;4.80;;;;;;;;;;4972797;28;20208;-76
2022/08/13 15:37:20;;;;;;;5.05;4.68;;;;;;;;;;4972140;28;20216;-76
2022/08/13 15:39:51;;;;;;;5.32;4.57;;;;;;;;;;4973391;28;20248;-76
2022/08/13 15:42:21;;;;;;;5.95;5.03;;;;;;;;;;4972899;28;20209;-76
2022/08/13 15:44:52;;;;;;;5.75;5.25;;;;;;;;;;4972367;28;20238;-76
2022/08/13 15:47:22;;;;;;;5.30;4.65;;;;;;;;;;4974541;28;20210;-76
2022/08/13 15:49:53;;;;;;;5.03;4.63;;;;;;;;;;4972178;28;20226;-76
2022/08/13 15:52:24;;;;;;;6.60;4.75;;;;;;;;;;4973319;28;20191;-77
2022/08/13 15:54:53;;;;;;;6.63;5.03;;;;;;;;;;4958623;29;20757;-76
2022/08/13 15:57:22;;;;;;;5.55;4.82;;;;;;;;;;4959530;28;20214;-76
2022/08/13 15:59:53;;;;;;;5.40;4.90;;;;;;;;;;4978331;28;20237;-76
2022/08/13 16:02:24;;;;;;;5.20;4.70;;;;;;;;;;4977027;28;20210;-76
2022/08/13 16:05:16;;;;;;;5.50;5.00;;;;;;;;;;4976449;28;20268;-76
2022/08/13 16:07:57;;;;;;;5.55;5.15;;;;;;;;;;4969326;28;21005;-74